Terminal Aerodrome Forecast
Issued by NWS

Home | Current Version | Previous Version | Text Only | Print | Product List | Glossary On
Versions: 1 2 3 4 5 6 7 8 9 10 11 12 13 14 15 16
773
FTPA31 PHFO 201724
TAFHNY
TAF
PHNY 201724Z 2018/2118 05008KT P6SM FEW025 SCT040
     FM202000 05015KT P6SM FEW020 SCT040
     FM210600 05009KT P6SM FEW020 SCT040
      AMD NOT SKED 2106/2117=

USA.gov is the U.S. government's official web portal to all federal, state and local government web resources and services.